createdAt,value
2022-09-15T00:00:31.174Z,4.20
2022-09-15T00:05:33.830Z,4.63
2022-09-15T00:10:37.867Z,5.05
2022-09-15T00:15:40.688Z,4.47
2022-09-15T00:20:45.171Z,4.63
2022-09-15T00:25:50.733Z,4.68
2022-09-15T00:30:54.915Z,4.65
2022-09-15T00:35:57.793Z,4.47
2022-09-15T00:41:02.363Z,4.60
2022-09-15T00:46:05.186Z,4.85
2022-09-15T00:51:09.668Z,4.78
2022-09-15T00:56:15.538Z,4.57
2022-09-15T01:01:18.709Z,4.80
2022-09-15T01:06:26.457Z,5.25
2022-09-15T01:11:31.229Z,4.10
2022-09-15T01:16:41.393Z,4.20
2022-09-15T01:21:46.791Z,4.35
2022-09-15T01:27:00.097Z,5.10
2022-09-15T01:32:26.148Z,4.20
2022-09-15T01:37:31.670Z,4.78
2022-09-15T01:42:35.225Z,4.32
2022-09-15T01:47:40.563Z,3.97
2022-09-15T01:52:45.681Z,4.70
2022-09-15T01:57:48.462Z,4.55
2022-09-15T02:02:57.813Z,4.20
2022-09-15T02:08:05.080Z,4.45
2022-09-15T02:13:13.179Z,4.30
2022-09-15T02:18:19.224Z,4.22
2022-09-15T02:23:26.827Z,4.57
2022-09-15T02:28:32.019Z,4.65
2022-09-15T02:33:38.753Z,4.55
2022-09-15T02:38:46.387Z,4.63
2022-09-15T02:43:50.246Z,4.40
2022-09-15T02:48:54.334Z,4.45
2022-09-15T02:53:57.029Z,4.63
2022-09-15T02:58:59.769Z,4.13
2022-09-15T03:04:05.188Z,4.05
2022-09-15T03:09:08.981Z,5.00
2022-09-15T03:14:11.845Z,4.72
2022-09-15T03:19:15.966Z,4.68
2022-09-15T03:24:19.715Z,4.22
2022-09-15T03:29:22.479Z,4.20
2022-09-15T03:34:26.701Z,4.45
2022-09-15T03:39:29.484Z,4.32
2022-09-15T03:44:32.260Z,4.78
2022-09-15T03:49:40.223Z,4.07
2022-09-15T03:54:42.947Z,4.03
2022-09-15T03:59:45.653Z,4.10
2022-09-15T04:04:49.745Z,4.38
2022-09-15T04:09:52.540Z,4.82
2022-09-15T04:14:55.490Z,4.40
2022-09-15T04:19:59.620Z,4.70
2022-09-15T04:25:02.365Z,4.40
2022-09-15T04:30:05.974Z,4.50
2022-09-15T04:35:11.104Z,4.40
2022-09-15T04:40:14.134Z,4.50
2022-09-15T04:45:17.051Z,4.35
2022-09-15T04:50:21.071Z,4.47
2022-09-15T04:55:23.770Z,3.85
2022-09-15T05:00:27.033Z,4.30
2022-09-15T05:05:31.104Z,4.15
2022-09-15T05:10:34.105Z,4.50
2022-09-15T05:15:36.867Z,4.38
2022-09-15T05:20:40.897Z,4.00
2022-09-15T05:25:43.585Z,4.30
2022-09-15T05:30:46.274Z,4.35
2022-09-15T05:35:53.868Z,4.22
2022-09-15T05:41:02.812Z,3.75
2022-09-15T05:46:06.501Z,3.67
2022-09-15T05:51:10.724Z,3.80
2022-09-15T05:56:14.947Z,3.80
2022-09-15T06:01:19.353Z,3.90
2022-09-15T06:06:24.342Z,3.85
2022-09-15T06:11:28.643Z,4.22
2022-09-15T06:16:33.352Z,3.70
2022-09-15T06:21:37.507Z,3.70
2022-09-15T06:26:40.336Z,3.83
2022-09-15T06:31:43.074Z,3.65
2022-09-15T06:36:47.210Z,3.28
2022-09-15T06:42:02.339Z,3.30
2022-09-15T06:47:07.262Z,3.60
2022-09-15T06:52:11.415Z,3.45
2022-09-15T06:57:14.264Z,4.28
2022-09-15T07:02:17.017Z,3.65
2022-09-15T07:07:21.186Z,3.22
2022-09-15T07:12:23.859Z,3.45
2022-09-15T07:17:27.292Z,3.95
2022-09-15T07:22:31.586Z,3.60
2022-09-15T07:27:34.252Z,4.03
2022-09-15T07:32:37.302Z,4.15
2022-09-15T07:37:41.337Z,4.03
2022-09-15T07:42:44.354Z,4.22
2022-09-15T07:47:47.113Z,4.25
2022-09-15T07:52:51.206Z,4.63
2022-09-15T07:57:59.956Z,4.38
2022-09-15T08:03:02.656Z,4.53
2022-09-15T08:08:06.965Z,4.45
2022-09-15T08:13:09.742Z,5.07
2022-09-15T08:18:12.572Z,5.10
2022-09-15T08:23:16.668Z,5.15
2022-09-15T08:28:19.392Z,4.85
2022-09-15T08:33:22.363Z,5.65
2022-09-15T08:38:26.497Z,5.10
2022-09-15T08:43:32.513Z,5.40
2022-09-15T08:48:39.860Z,5.78
2022-09-15T08:53:46.776Z,5.70
2022-09-15T08:58:50.795Z,5.60
2022-09-15T09:04:23.935Z,5.85
2022-09-15T09:09:34.061Z,5.22
2022-09-15T09:14:45.971Z,5.25
2022-09-15T09:19:59.222Z,6.05
2022-09-15T09:25:21.131Z,5.68
2022-09-15T09:30:30.619Z,5.68
2022-09-15T09:35:35.528Z,5.30
2022-09-15T09:40:41.413Z,5.72
2022-09-15T09:45:45.859Z,5.50
2022-09-15T09:50:49.613Z,5.30
2022-09-15T09:55:55.101Z,5.47
2022-09-15T10:01:10.630Z,8.25
2022-09-15T10:06:18.178Z,20.88
2022-09-15T10:11:23.977Z,19.75
2022-09-15T10:16:27.603Z,15.88
2022-09-15T10:21:30.416Z,13.63
2022-09-15T10:26:36.007Z,10.82
2022-09-15T10:31:38.735Z,9.95
2022-09-15T10:36:41.493Z,8.32
2022-09-15T10:41:49.062Z,7.95
2022-09-15T10:47:05.740Z,7.43
2022-09-15T10:52:15.080Z,6.53
2022-09-15T10:57:33.096Z,6.30
2022-09-15T11:03:06.874Z,6.10
2022-09-15T11:08:38.636Z,5.18
2022-09-15T11:13:51.270Z,5.38
2022-09-15T11:19:03.735Z,4.80
2022-09-15T11:24:25.203Z,4.90
2022-09-15T11:29:32.219Z,4.20
2022-09-15T11:34:37.600Z,4.32
2022-09-15T11:39:45.600Z,4.32
2022-09-15T11:44:49.834Z,3.65
2022-09-15T11:49:57.072Z,4.00
2022-09-15T11:55:04.682Z,3.40
2022-09-15T12:00:13.410Z,3.33
2022-09-15T12:05:19.479Z,2.90
2022-09-15T12:10:24.758Z,3.05
2022-09-15T12:15:29.400Z,2.50
2022-09-15T12:20:37.015Z,2.55
2022-09-15T12:25:45.064Z,2.55
2022-09-15T12:30:50.412Z,2.47
2022-09-15T12:35:53.252Z,2.35
2022-09-15T12:40:58.950Z,2.70
2022-09-15T12:46:03.272Z,2.60
2022-09-15T12:51:10.363Z,2.40
2022-09-15T12:56:23.569Z,2.88
2022-09-15T13:01:49.747Z,2.33
2022-09-15T13:07:24.938Z,2.70
2022-09-15T13:12:32.082Z,2.53
2022-09-15T13:17:36.364Z,2.20
2022-09-15T13:22:43.953Z,2.30
2022-09-15T13:27:49.656Z,2.40
2022-09-15T13:32:58.840Z,2.42
2022-09-15T13:38:32.406Z,2.45
2022-09-15T13:43:50.423Z,2.58
2022-09-15T13:49:19.304Z,2.10
2022-09-15T13:54:22.049Z,2.20
2022-09-15T13:59:28.349Z,1.92
2022-09-15T14:04:32.920Z,1.95
2022-09-15T14:09:39.782Z,1.67
2022-09-15T14:14:44.535Z,1.90
2022-09-15T14:19:49.932Z,1.77
2022-09-15T14:24:54.024Z,1.60
2022-09-15T14:29:58.369Z,1.92
2022-09-15T14:35:06.448Z,1.40
2022-09-15T14:40:19.955Z,1.70
2022-09-15T14:50:57.669Z,1.60
2022-09-15T14:56:07.897Z,1.65
2022-09-15T15:01:15.642Z,1.42
2022-09-15T15:06:29.455Z,1.60
2022-09-15T15:11:34.516Z,1.60
2022-09-15T15:16:38.090Z,1.30
2022-09-15T15:21:43.636Z,1.75
2022-09-15T15:26:47.154Z,1.30
2022-09-15T15:31:49.951Z,1.40
2022-09-15T15:37:03.298Z,1.40
2022-09-15T15:42:08.934Z,1.40
2022-09-15T15:47:25.539Z,1.50
2022-09-15T15:52:29.619Z,1.30
2022-09-15T15:57:36.311Z,1.50
2022-09-15T16:02:39.050Z,1.58
2022-09-15T16:07:43.897Z,1.60
2022-09-15T16:12:46.650Z,1.67
2022-09-15T16:17:49.828Z,1.60
2022-09-15T16:22:53.959Z,1.30
2022-09-15T16:27:56.788Z,1.40
2022-09-15T16:32:59.618Z,1.48
2022-09-15T16:38:03.718Z,1.60
2022-09-15T16:43:11.076Z,1.50
2022-09-15T16:48:14.008Z,2.65
2022-09-15T16:53:19.668Z,2.25
2022-09-15T16:58:23.163Z,1.95
2022-09-15T17:03:26.947Z,2.17
2022-09-15T17:08:32.652Z,1.98
2022-09-15T17:13:35.471Z,1.92
2022-09-15T17:18:38.183Z,1.65
2022-09-15T17:23:44.590Z,2.05
2022-09-15T17:28:47.785Z,1.60
2022-09-15T17:33:53.037Z,1.67
2022-09-15T17:38:57.138Z,1.50
2022-09-15T17:43:59.898Z,1.80
2022-09-15T17:49:02.589Z,1.48
2022-09-15T17:54:07.403Z,1.40
2022-09-15T17:59:13.073Z,1.33
2022-09-15T18:04:18.919Z,1.42
2022-09-15T18:09:23.039Z,1.60
2022-09-15T18:14:25.798Z,1.58
2022-09-15T18:19:28.594Z,1.60
2022-09-15T18:24:32.643Z,1.50
2022-09-15T18:29:35.445Z,1.80
2022-09-15T18:34:38.183Z,1.60
2022-09-15T18:39:42.345Z,1.40
2022-09-15T18:44:45.222Z,1.60
2022-09-15T18:49:47.987Z,1.55
2022-09-15T18:54:55.981Z,1.55
2022-09-15T18:59:58.705Z,1.50
2022-09-15T19:05:01.433Z,1.58
2022-09-15T19:10:06.258Z,1.50
2022-09-15T19:15:11.258Z,1.40
2022-09-15T19:20:15.996Z,1.50
2022-09-15T19:25:21.363Z,1.40
2022-09-15T19:30:24.092Z,1.60
2022-09-15T19:35:26.832Z,1.40
2022-09-15T19:40:31.519Z,1.52
2022-09-15T19:45:35.152Z,1.60
2022-09-15T19:50:39.256Z,1.45
2022-09-15T19:55:43.375Z,1.48
2022-09-15T20:00:52.976Z,1.40
2022-09-15T20:05:57.596Z,1.48
2022-09-15T20:11:05.380Z,1.35
2022-09-15T20:16:08.911Z,1.38
2022-09-15T20:21:21.756Z,1.30
2022-09-15T20:26:32.014Z,1.40
2022-09-15T20:31:35.038Z,1.33
2022-09-15T20:36:39.347Z,1.30
2022-09-15T20:41:45.668Z,1.35
2022-09-15T20:46:48.495Z,1.50
2022-09-15T20:51:51.606Z,1.45
2022-09-15T20:56:55.855Z,1.40
2022-09-15T21:01:58.658Z,1.20
2022-09-15T21:07:01.425Z,1.42
2022-09-15T21:12:06.054Z,1.30
2022-09-15T21:17:08.757Z,1.40
2022-09-15T21:22:11.495Z,1.60
2022-09-15T21:27:27.377Z,1.20
2022-09-15T21:32:30.299Z,1.30
2022-09-15T21:37:33.109Z,1.50
2022-09-15T21:42:37.282Z,1.00
2022-09-15T21:47:39.919Z,1.30
2022-09-15T21:52:42.614Z,1.08
2022-09-15T21:57:47.055Z,1.30
2022-09-15T22:02:52.212Z,1.20
2022-09-15T22:07:55.161Z,1.10
2022-09-15T22:13:04.087Z,1.25
2022-09-15T22:18:07.383Z,1.25
2022-09-15T22:23:10.332Z,1.10
2022-09-15T22:28:14.380Z,1.20
2022-09-15T22:33:17.129Z,1.02
2022-09-15T22:38:19.898Z,1.20
2022-09-15T22:43:24.521Z,1.23
2022-09-15T22:48:27.226Z,1.50
2022-09-15T22:53:29.911Z,1.38
2022-09-15T22:58:34.277Z,1.00
2022-09-15T23:03:37.082Z,1.30
2022-09-15T23:08:39.936Z,1.10
2022-09-15T23:13:44.033Z,1.00
2022-09-15T23:18:46.840Z,1.25
2022-09-15T23:23:50.309Z,1.15
2022-09-15T23:28:54.733Z,1.10
2022-09-15T23:33:57.495Z,1.25
2022-09-15T23:39:00.298Z,1.05
2022-09-15T23:44:05.005Z,1.00
2022-09-15T23:49:07.812Z,1.05
2022-09-15T23:54:11.222Z,1.10
2022-09-15T23:59:15.455Z,1.10
